Lone Rock, WI (53556)

07:31 AM CST die 27o February, anno 2017 (GMT -0600)
Artificer | | Change Station

Elev 1000 ft 43.13 °N, 90.29 °W | Updated 56 seconds ago

Clear
Serena
27.4 °F
Feels Like 27 °F
N
2.1
Ventus Variabilis Ventus from Inter Aquilonem et Zephyrus
Gusts 2.7 mph

Hodie
High -- | Low -- °F
--% Chance of Precip.
Yesterday
High -- | Low -- °F
Precip. -- in
Pressio 30.12 in
Visibilitas 5.0 milia passuum
Clouds Serena
Frigus Venti 27 °F
Frigus in quo Ros apparet 26 °F
Umor 95%
Rainfall 0.00 in
Snow Depth Not available.
6:39 AM 5:47 PM
New, 1% visible
METAR KLNR 271256Z AUTO 11003KT 5SM BR CLR M06/M07 A3010 RMK AO2 SLP197 I1000 T10561072
Pressio 30.12 in
Visibilitas 5.0 milia passuum
Clouds Serena
Frigus Venti 27 °F
Frigus in quo Ros apparet 26 °F
Umor 95%
Rainfall 0.00 in
Snow Depth Not available.
6:39 AM 5:47 PM
New, 1% visible
METAR KLNR 271256Z AUTO 11003KT 5SM BR CLR M06/M07 A3010 RMK AO2 SLP197 I1000 T10561072

Get Your Daily Forecast Email!

Thanks for signing up!

Be on the lookout for a verification email in your inbox.

You'll start receiving the daily forecast at 8 AM.

×

10-Day Weather Forecast

Almanac

Astronomy

Feb. 27, 2017 Rise Set
Actual Time
Civil Twilight
Nautical Twilight
Astronomical Twilight
Moon
Length Of Visible Light
Length of Day
Tomorrow will be .
, % of the Moon is Illuminated

Today's Extremes

State Highs State Lows

Community

WunderPhotos

Upload Photos

1,962,540 photos uploaded!

WunderBlog® & News

Nearby

Air Quality

  Air Quality AQ Index Pollutant
Not available.

Snow Depth

Station Depth Elevation

Earthquake Activity

City Distance Mag. Time & Date
Minimum magnitude displayed is 2.5.

Coastal Water Temperatures

Locus Calor

Stations

Nearby Weather Stations

Station Location Temp Frigus Venti Frigus in quo Ros apparet Umor Ventus Precip. Elev Renovata Type
                   

Watches & Warnings

There are currently no watches in effect.